Time;durP1;ratioP1;P1;durP2;ratioP2;P2;SDS_P1;SDS_P2;PMS_P1;PMS_P2;Temp;Humidity;BMP_temperature;BMP_pressure;BME280_temperature;BME280_humidity;BME280_pressure;Samples;Min_cycle;Max_cycle;Signal;HPM_P1;HPM_P2
2023/05/03 00:01:53;;;;;;;15.18;9.18;;;;;;;;;;6338789;22;20152;-92
2023/05/03 00:04:59;;;;;;;13.20;8.45;;;;;;;;;;6338434;22;20165;-94
2023/05/03 00:08:05;;;;;;;21.65;9.52;;;;;;;;;;6335426;22;20230;-93
2023/05/03 00:11:12;;;;;;;16.90;8.98;;;;;;;;;;6353113;22;20750;-92
2023/05/03 00:14:18;;;;;;;14.43;8.70;;;;;;;;;;6334212;22;20164;-91
2023/05/03 00:17:24;;;;;;;15.38;8.45;;;;;;;;;;6355199;22;20169;-92
2023/05/03 00:20:29;;;;;;;13.80;8.77;;;;;;;;;;6354725;22;20184;-93
2023/05/03 00:27:30;;;;;;;14.98;9.25;;;;;;;;;;6338117;22;20157;-93
2023/05/03 00:30:35;;;;;;;19.02;9.65;;;;;;;;;;6356191;22;20196;-91
2023/05/03 00:33:40;;;;;;;21.42;11.32;;;;;;;;;;6356495;22;20159;-93
2023/05/03 00:36:45;;;;;;;28.40;12.45;;;;;;;;;;6338402;22;20167;-92
2023/05/03 00:39:55;;;;;;;25.83;12.38;;;;;;;;;;6337555;22;20203;-93
2023/05/03 00:43:01;;;;;;;24.17;12.30;;;;;;;;;;6336227;22;20169;-94
2023/05/03 00:46:07;;;;;;;23.38;12.45;;;;;;;;;;6335737;22;20242;-92
2023/05/03 00:49:20;;;;;;;28.45;14.43;;;;;;;;;;6335948;22;20176;-95
2023/05/03 00:52:25;;;;;;;24.63;13.30;;;;;;;;;;6336549;22;20215;-94
2023/05/03 00:55:31;;;;;;;24.45;13.40;;;;;;;;;;6336342;22;20249;-94
2023/05/03 00:58:39;;;;;;;24.23;12.95;;;;;;;;;;6335515;22;20160;-93
2023/05/03 01:01:44;;;;;;;24.90;12.40;;;;;;;;;;6337344;22;20215;-94
2023/05/03 01:04:50;;;;;;;22.02;11.77;;;;;;;;;;6336041;22;20160;-93
2023/05/03 01:08:01;;;;;;;21.73;11.40;;;;;;;;;;6336589;22;20203;-93
2023/05/03 01:11:08;;;;;;;24.33;11.57;;;;;;;;;;6337154;22;20262;-93
2023/05/03 01:14:20;;;;;;;25.25;12.88;;;;;;;;;;6337745;22;20145;-93
2023/05/03 01:17:28;;;;;;;28.38;12.95;;;;;;;;;;6336801;22;20187;-93
2023/05/03 01:20:35;;;;;;;22.85;12.00;;;;;;;;;;6338149;22;20504;-94
2023/05/03 01:28:02;;;;;;;28.92;12.77;;;;;;;;;;6353617;22;20169;-92
2023/05/03 01:31:07;;;;;;;25.55;13.05;;;;;;;;;;6336344;22;20208;-94
2023/05/03 01:34:19;;;;;;;24.42;12.02;;;;;;;;;;6336691;22;20203;-94
2023/05/03 01:37:25;;;;;;;24.95;12.75;;;;;;;;;;6334908;22;20164;-92
2023/05/03 01:40:34;;;;;;;25.85;12.77;;;;;;;;;;6338308;22;20144;-94
2023/05/03 01:43:41;;;;;;;22.42;11.82;;;;;;;;;;6337543;22;20203;-93
2023/05/03 01:47:17;;;;;;;24.10;11.52;;;;;;;;;;6336912;22;20164;-92
2023/05/03 01:50:23;;;;;;;16.33;9.50;;;;;;;;;;6334776;22;20188;-92
2023/05/03 01:53:29;;;;;;;17.08;9.93;;;;;;;;;;6355437;22;20191;-94
2023/05/03 01:56:35;;;;;;;21.42;10.15;;;;;;;;;;6337761;22;20187;-93
2023/05/03 01:59:42;;;;;;;20.17;10.82;;;;;;;;;;6336097;22;20210;-94
2023/05/03 02:02:47;;;;;;;25.95;11.68;;;;;;;;;;6337107;22;20164;-93
2023/05/03 02:05:53;;;;;;;22.10;12.15;;;;;;;;;;6334965;22;20169;-93
2023/05/03 02:08:58;;;;;;;23.45;12.70;;;;;;;;;;6334938;22;20187;-94
2023/05/03 02:12:03;;;;;;;22.58;12.75;;;;;;;;;;6336258;22;20169;-93
2023/05/03 02:15:10;;;;;;;23.73;12.63;;;;;;;;;;6335452;22;20222;-93
2023/05/03 02:18:30;;;;;;;21.83;12.38;;;;;;;;;;6335343;22;20168;-93
2023/05/03 02:21:35;;;;;;;19.70;10.93;;;;;;;;;;6334133;22;20168;-94
2023/05/03 02:28:33;;;;;;;12.45;7.93;;;;;;;;;;6333719;22;20175;-93
2023/05/03 02:31:39;;;;;;;14.07;8.57;;;;;;;;;;6351021;22;20530;-92
2023/05/03 02:34:45;;;;;;;14.50;8.38;;;;;;;;;;6351088;22;20493;-93
2023/05/03 02:37:50;;;;;;;15.32;8.43;;;;;;;;;;6353390;22;20176;-93
2023/05/03 02:40:55;;;;;;;14.15;8.18;;;;;;;;;;6352092;22;20223;-93
2023/05/03 02:44:01;;;;;;;11.98;7.50;;;;;;;;;;6352625;22;20177;-94
2023/05/03 02:47:08;;;;;;;15.32;8.20;;;;;;;;;;6334799;22;20190;-92
2023/05/03 02:50:14;;;;;;;13.48;7.70;;;;;;;;;;6351417;22;20238;-93
2023/05/03 02:53:20;;;;;;;14.73;8.25;;;;;;;;;;6350565;22;20172;-94
2023/05/03 02:56:26;;;;;;;14.90;8.10;;;;;;;;;;6351512;22;20196;-93
2023/05/03 02:59:32;;;;;;;19.95;9.30;;;;;;;;;;6351161;22;20211;-94
2023/05/03 03:02:40;;;;;;;15.13;8.85;;;;;;;;;;6332573;22;20161;-94
2023/05/03 03:05:45;;;;;;;18.40;10.68;;;;;;;;;;6351307;22;20172;-93
2023/05/03 03:08:53;;;;;;;20.20;10.90;;;;;;;;;;6333229;22;20229;-92
2023/05/03 03:11:58;;;;;;;19.05;10.55;;;;;;;;;;6332599;22;20187;-94
2023/05/03 03:15:03;;;;;;;24.95;11.85;;;;;;;;;;6334150;22;20490;-94
2023/05/03 03:18:17;;;;;;;19.73;10.90;;;;;;;;;;6334217;22;20220;-93
2023/05/03 03:21:23;;;;;;;21.30;11.48;;;;;;;;;;6331931;22;20318;-93
2023/05/03 03:24:28;;;;;;;25.15;11.77;;;;;;;;;;6332779;22;20168;-93
2023/05/03 03:27:33;;;;;;;21.90;12.25;;;;;;;;;;6332691;22;20250;-92
2023/05/03 03:30:39;;;;;;;30.40;12.60;;;;;;;;;;6333676;22;20164;-93
2023/05/03 03:33:56;;;;;;;25.88;12.50;;;;;;;;;;6332685;22;20168;-95
2023/05/03 03:37:05;;;;;;;27.65;12.70;;;;;;;;;;6332455;22;20161;-93
2023/05/03 03:40:11;;;;;;;24.80;13.43;;;;;;;;;;6331999;22;20168;-94
2023/05/03 03:43:17;;;;;;;25.40;12.88;;;;;;;;;;6333772;22;20223;-93
2023/05/03 03:46:22;;;;;;;23.70;12.82;;;;;;;;;;6334736;22;20164;-92
2023/05/03 03:49:33;;;;;;;24.00;12.75;;;;;;;;;;6335291;22;20161;-93
2023/05/03 03:52:39;;;;;;;21.67;12.70;;;;;;;;;;6333804;22;20168;-94
2023/05/03 03:55:44;;;;;;;20.90;12.85;;;;;;;;;;6332599;22;20214;-94
2023/05/03 03:58:49;;;;;;;24.45;13.00;;;;;;;;;;6332709;22;20164;-93
2023/05/03 04:01:54;;;;;;;25.08;12.77;;;;;;;;;;6332590;22;20184;-94
2023/05/03 04:05:01;;;;;;;22.83;12.88;;;;;;;;;;6335166;22;20611;-93
2023/05/03 04:08:06;;;;;;;24.70;12.82;;;;;;;;;;6336202;22;20200;-92
2023/05/03 04:11:14;;;;;;;32.05;13.27;;;;;;;;;;6335401;22;20160;-94
2023/05/03 04:14:28;;;;;;;24.65;13.35;;;;;;;;;;6334817;22;20164;-93
2023/05/03 04:17:36;;;;;;;20.75;12.27;;;;;;;;;;6336526;22;20153;-94
2023/05/03 04:20:45;;;;;;;26.38;13.20;;;;;;;;;;6335295;22;20176;-91
2023/05/03 04:23:52;;;;;;;24.50;14.55;;;;;;;;;;6334166;22;20521;-93
2023/05/03 04:27:03;;;;;;;23.33;12.45;;;;;;;;;;6336426;22;20195;-93
2023/05/03 04:30:12;;;;;;;21.70;13.40;;;;;;;;;;6335054;22;20514;-94
2023/05/03 04:33:18;;;;;;;27.55;13.00;;;;;;;;;;6334917;22;20164;-93
2023/05/03 04:36:25;;;;;;;22.70;12.73;;;;;;;;;;6334581;22;20170;-93
2023/05/03 04:39:31;;;;;;;22.48;12.40;;;;;;;;;;6336456;22;20179;-93
2023/05/03 04:42:36;;;;;;;20.45;11.57;;;;;;;;;;6336099;22;20232;-93
2023/05/03 04:45:41;;;;;;;18.25;10.65;;;;;;;;;;6336255;22;20224;-93
2023/05/03 04:48:51;;;;;;;19.65;10.65;;;;;;;;;;6336826;22;20219;-93
2023/05/03 04:51:59;;;;;;;20.67;10.70;;;;;;;;;;6336620;22;20162;-92
2023/05/03 04:55:06;;;;;;;18.17;9.75;;;;;;;;;;6333635;22;20187;-90
2023/05/03 04:58:11;;;;;;;17.63;10.23;;;;;;;;;;6353777;22;20191;-93
2023/05/03 05:01:17;;;;;;;17.13;9.55;;;;;;;;;;6336133;22;20200;-92
2023/05/03 05:04:25;;;;;;;21.60;9.77;;;;;;;;;;6334576;22;20214;-93
2023/05/03 05:07:33;;;;;;;16.40;9.82;;;;;;;;;;6353236;22;20172;-93
2023/05/03 05:10:39;;;;;;;17.70;9.23;;;;;;;;;;6354900;22;20177;-92
2023/05/03 05:13:58;;;;;;;16.33;10.20;;;;;;;;;;6357907;22;20157;-92
2023/05/03 05:17:05;;;;;;;16.75;10.05;;;;;;;;;;6341687;22;20160;-93
2023/05/03 05:23:32;;;;;;;19.00;11.45;;;;;;;;;;6338518;22;20180;-93
2023/05/03 05:26:39;;;;;;;21.15;10.95;;;;;;;;;;6335714;22;20215;-95
2023/05/03 05:29:45;;;;;;;21.77;12.25;;;;;;;;;;6337439;22;20148;-93
2023/05/03 05:36:14;;;;;;;22.63;13.40;;;;;;;;;;6360423;22;20197;-92
2023/05/03 05:39:30;;;;;;;22.60;13.63;;;;;;;;;;6364274;22;20246;-94
2023/05/03 10:28:45;;;;;;;16.38;10.50;;;;;;;;;;6309489;22;20220;-93
2023/05/03 10:31:50;;;;;;;19.65;10.90;;;;;;;;;;6338028;22;20180;-94
2023/05/03 10:35:04;;;;;;;19.02;10.55;;;;;;;;;;6338996;22;20172;-91
2023/05/03 10:38:15;;;;;;;15.63;10.27;;;;;;;;;;6323412;22;20166;-93
2023/05/03 10:41:26;;;;;;;18.80;10.82;;;;;;;;;;6341597;22;20211;-94
2023/05/03 10:48:43;;;;;;;19.02;10.98;;;;;;;;;;6343246;22;20180;-93
2023/05/03 10:51:50;;;;;;;19.75;11.50;;;;;;;;;;6340222;22;20239;-94
2023/05/03 10:54:56;;;;;;;17.77;11.75;;;;;;;;;;6342163;22;20199;-93
2023/05/03 10:58:03;;;;;;;21.00;11.00;;;;;;;;;;6341169;22;20160;-91
